»·PEaware :: N222BH KCNO-KSAN

N222BH :: KCNO-KSAN

FLIGHT INFORMATION

Flight Status: Arrived
Operator: Privately registered:
United States
More flights under this callsign
Pilot: Ben H. (9170)
Aircraft: PIPER PA-31/31P NAVAJO CHIEFTAIN
(PA31)
More flights by this aircraft type
Origin: KCNO Chino
United States
Destination: KSAN San Diego Intl-Lindbergh
United States
More flights between these airports :: More routes between these airports
Route: +PDZ V186 HAILE V66 MZB
File this flight plan on PilotEdge
Remarks: ONTP12
Altitude:
(Current/Filed)
9,000ft
Speed:
(Current/Filed)
170kts
Departed: 28-Jul-18 10:45 AM
Arrived: 28-Jul-18 11:27 AM
Distance/Time
Traveled:
78nm/0:42
Distance/Time
To Go:
Arrived

Flight Plot

Page will automatically refresh every two minutes.


Map Options




Map Legend


Flown Route
Filed Route
Departure Airport
Arrival Airport
Navaid (VOR, NDB)
Fix

Horizontal Profiles

Position Reports

Time Latitude Longitude Heading Altitude Ground
Speed
28-Jul-18 10:29 33.978783 -117.639948 179 653ft 0kts
28-Jul-18 10:30 33.978783 -117.639948 179 653ft 0kts
28-Jul-18 10:31 33.978783 -117.639948 179 653ft 0kts
28-Jul-18 10:32 33.978782 -117.639948 180 653ft 0kts
28-Jul-18 10:33 33.978782 -117.639948 179 653ft 0kts
28-Jul-18 10:34 33.978782 -117.639948 179 653ft 0kts
28-Jul-18 10:35 33.978782 -117.639948 179 653ft 0kts
28-Jul-18 10:36 33.978765 -117.639946 171 653ft 2kts
28-Jul-18 10:37 33.977329 -117.639229 177 653ft 0kts
28-Jul-18 10:38 33.977300 -117.639227 177 653ft 0kts
28-Jul-18 10:39 33.977006 -117.639139 140 653ft 8kts
28-Jul-18 10:40 33.976929 -117.632807 89 653ft 23kts
28-Jul-18 10:41 33.976764 -117.630677 262 653ft 0kts
28-Jul-18 10:42 33.976701 -117.630964 178 653ft 0kts
28-Jul-18 10:43 33.976701 -117.630964 177 653ft 0kts
28-Jul-18 10:44 33.976655 -117.630952 164 653ft 0kts
28-Jul-18 10:45 33.976655 -117.630952 164 653ft 0kts
28-Jul-18 10:46 33.975781 -117.638184 269 722ft 105kts
28-Jul-18 10:47 33.974542 -117.678250 269 2566ft 116kts
28-Jul-18 10:48 33.970566 -117.714348 226 4401ft 120kts
28-Jul-18 10:49 33.950409 -117.690694 103 5961ft 139kts
28-Jul-18 10:50 33.941105 -117.643233 103 7025ft 171kts
28-Jul-18 10:51 33.929280 -117.583717 102 6983ft 190kts
28-Jul-18 10:52 33.911213 -117.524341 138 7018ft 193kts
28-Jul-18 10:53 33.871580 -117.490478 144 8048ft 187kts
28-Jul-18 10:54 33.828842 -117.454667 144 8989ft 199kts
28-Jul-18 10:55 33.783597 -117.416820 144 9002ft 197kts
28-Jul-18 10:56 33.738736 -117.379319 145 9010ft 196kts
28-Jul-18 10:57 33.695347 -117.343086 146 9006ft 197kts
28-Jul-18 10:58 33.650791 -117.305846 146 9005ft 199kts
28-Jul-18 10:59 33.617524 -117.278166 145 9006ft 200kts
28-Jul-18 11:00 33.589592 -117.254942 146 9006ft 200kts
28-Jul-18 11:01 33.546128 -117.218679 146 9002ft 197kts
28-Jul-18 11:02 33.500316 -117.183233 150 9007ft 197kts
28-Jul-18 11:03 33.452928 -117.150363 150 9006ft 198kts
28-Jul-18 11:04 33.407717 -117.119108 150 9010ft 199kts
28-Jul-18 11:05 33.360807 -117.085976 150 9007ft 197kts
28-Jul-18 11:06 33.313739 -117.053002 151 9006ft 195kts
28-Jul-18 11:07 33.266715 -117.019834 150 9011ft 199kts
28-Jul-18 11:08 33.225810 -116.991133 150 9007ft 201kts
28-Jul-18 11:09 33.178221 -116.957323 150 9005ft 201kts
28-Jul-18 11:10 33.129412 -116.923282 156 9007ft 207kts
28-Jul-18 11:11 33.076989 -116.894754 156 9001ft 208kts
28-Jul-18 11:12 33.024298 -116.866137 156 9007ft 209kts
28-Jul-18 11:13 32.971835 -116.837897 156 9005ft 205kts
28-Jul-18 11:14 32.925910 -116.813225 156 9008ft 198kts
28-Jul-18 11:15 32.888267 -116.792947 156 9007ft 197kts
28-Jul-18 11:16 32.836212 -116.791993 189 8134ft 203kts
28-Jul-18 11:17 32.780839 -116.800456 188 7031ft 201kts
28-Jul-18 11:18 32.727284 -116.810372 190 5969ft 192kts
28-Jul-18 11:19 32.680231 -116.823339 226 4963ft 187kts
28-Jul-18 11:20 32.676626 -116.881751 269 4548ft 185kts
28-Jul-18 11:21 32.677719 -116.941306 271 3787ft 168kts
28-Jul-18 11:22 32.685900 -116.992916 283 3391ft 163kts
28-Jul-18 11:23 32.697515 -117.041538 284 2896ft 148kts
28-Jul-18 11:24 32.708507 -117.086531 281 2002ft 134kts
28-Jul-18 11:25 32.717850 -117.124886 279 1130ft 100kts
28-Jul-18 11:26 32.725558 -117.155555 280 581ft 96kts
28-Jul-18 11:27 32.732392 -117.184990 278 22ft 74kts
28-Jul-18 11:28 32.734591 -117.190790 30 21ft 0kts
28-Jul-18 11:29 32.734346 -117.188162 107 21ft 25kts
28-Jul-18 11:30 32.732229 -117.179407 108 21ft 22kts
28-Jul-18 11:31 32.732422 -117.176804 198 21ft 0kts
28-Jul-18 11:32 32.732422 -117.176804 198 21ft 0kts
28-Jul-18 11:33 32.732422 -117.176804 198 21ft 0kts
28-Jul-18 11:34 32.732422 -117.176804 198 21ft 0kts
28-Jul-18 11:35 32.732422 -117.176804 198 21ft 0kts
28-Jul-18 11:36 32.732422 -117.176804 198 21ft 0kts
28-Jul-18 11:37 32.732422 -117.176804 198 21ft 0kts
28-Jul-18 11:38 32.732422 -117.176804 198 21ft 0kts
28-Jul-18 11:39 32.732422 -117.176804 198 21ft 0kts
28-Jul-18 11:40 32.732422 -117.176804 198 21ft 0kts
28-Jul-18 11:41 32.732422 -117.176804 198 21ft 0kts
28-Jul-18 11:42 32.732422 -117.176804 198 21ft 0kts

Navigation Log

Ident Type
1. KCNO Airport
2. PDZ Navaid
3. NIKKL Fix
4. WESIN Fix
5. TANNR Fix
6. DEGLE Fix
7. ROBNN Fix
8. HAILE Fix
9. MZB Navaid
10. KSAN Airport